Time;durP1;ratioP1;P1;durP2;ratioP2;P2;SDS_P1;SDS_P2;PMS_P1;PMS_P2;Temp;Humidity;BMP_temperature;BMP_pressure;BME280_temperature;BME280_humidity;BME280_pressure;Samples;Min_cycle;Max_cycle;Signal;HPM_P1;HPM_P2
2022/03/05 00:02:04;;;;;;;27.27;15.23;;;;;;;0.73;63.37;100761.38;5035878;28;20045;-82
2022/03/05 00:04:32;;;;;;;26.85;14.90;;;;;;;0.74;63.27;100768.53;5035345;28;20046;-82
2022/03/05 00:06:59;;;;;;;26.90;15.00;;;;;;;0.70;63.52;100759.13;5033386;28;20049;-82
2022/03/05 00:09:27;;;;;;;30.00;15.90;;;;;;;0.71;63.73;100765.44;5038188;28;20052;-81
2022/03/05 00:11:54;;;;;;;24.65;14.90;;;;;;;0.72;63.34;100761.63;5032858;28;20069;-80
2022/03/05 00:14:25;;;;;;;28.25;15.98;;;;;;;0.73;63.78;100769.59;5030326;28;20049;-81
2022/03/05 00:16:52;;;;;;;27.23;14.80;;;;;;;0.74;63.50;100764.97;5025453;28;20049;-83
2022/03/05 00:19:21;;;;;;;28.90;15.00;;;;;;;0.72;63.40;100773.44;5035696;28;20045;-81
2022/03/05 00:21:48;;;;;;;27.67;15.25;;;;;;;0.75;63.49;100772.09;5034638;28;20058;-82
2022/03/05 00:24:15;;;;;;;22.85;13.40;;;;;;;0.71;63.77;100776.41;5030718;28;20076;-81
2022/03/05 00:26:43;;;;;;;27.02;15.95;;;;;;;0.66;63.83;100763.44;5035618;28;20041;-81
2022/03/05 00:49:26;;;;;;;26.48;14.50;;;;;;;0.35;62.94;100772.88;3664047;28;22776;-78
2022/03/05 00:51:53;;;;;;;30.90;16.23;;;;;;;0.38;63.21;100775.16;3630971;28;21730;-79
2022/03/05 00:54:21;;;;;;;30.38;16.08;;;;;;;0.31;63.71;100777.16;4536415;28;20041;-81
2022/03/05 00:56:48;;;;;;;27.27;14.43;;;;;;;0.31;64.02;100771.69;5036595;28;20053;-81
2022/03/05 00:59:16;;;;;;;29.65;15.73;;;;;;;0.27;63.70;100768.59;5037092;28;20052;-81
2022/03/05 01:01:52;;;;;;;28.63;15.00;;;;;;;0.29;63.61;100776.56;5036552;28;20049;-80
2022/03/05 01:04:19;;;;;;;25.95;15.18;;;;;;;0.19;63.89;100775.28;5035956;28;20069;-80
2022/03/05 01:06:48;;;;;;;27.45;15.63;;;;;;;0.19;64.22;100768.97;5020967;28;20062;-80
2022/03/05 01:09:16;;;;;;;30.05;16.27;;;;;;;0.20;64.04;100763.22;5024887;28;20056;-82
2022/03/05 01:11:43;;;;;;;28.83;15.35;;;;;;;0.21;64.02;100766.81;5037651;28;20057;-83
2022/03/05 01:14:10;;;;;;;30.30;16.33;;;;;;;0.15;64.20;100767.78;5037536;28;20054;-83
2022/03/05 01:16:37;;;;;;;28.52;14.95;;;;;;;0.12;64.31;100766.31;5037729;28;20057;-81
2022/03/05 01:19:05;;;;;;;30.50;15.05;;;;;;;0.12;64.04;100769.06;5038782;28;20064;-83
2022/03/05 01:21:32;;;;;;;23.95;13.95;;;;;;;0.10;64.18;100768.47;5038082;28;20521;-83
2022/03/05 01:24:01;;;;;;;27.10;14.20;;;;;;;0.09;63.83;100766.81;5031686;28;20056;-83
2022/03/05 01:26:29;;;;;;;27.60;15.02;;;;;;;0.05;63.86;100770.28;5025283;28;20054;-82
2022/03/05 01:28:57;;;;;;;26.20;13.65;;;;;;;0.07;63.80;100768.13;5035050;28;20045;-83
2022/03/05 01:31:24;;;;;;;26.27;14.35;;;;;;;0.01;64.08;100766.34;5037696;28;20061;-83
2022/03/05 01:33:52;;;;;;;28.13;14.23;;;;;;;0.01;64.06;100763.59;5033816;28;20045;-82
2022/03/05 01:36:19;;;;;;;27.48;14.70;;;;;;;0.00;63.88;100768.25;5018864;28;20057;-82
2022/03/05 01:38:46;;;;;;;24.77;14.10;;;;;;;-0.05;63.85;100760.72;5031699;28;20050;-83
2022/03/05 01:41:15;;;;;;;26.30;14.63;;;;;;;-0.06;64.19;100761.81;5037713;28;20058;-83
2022/03/05 01:43:42;;;;;;;25.77;14.48;;;;;;;-0.08;63.89;100765.84;5040560;28;20390;-83
2022/03/05 01:46:09;;;;;;;25.77;14.13;;;;;;;-0.09;63.74;100767.75;5041042;28;20046;-83
2022/03/05 01:48:37;;;;;;;26.83;13.27;;;;;;;-0.12;63.77;100765.50;5037881;28;20049;-83
2022/03/05 01:51:04;;;;;;;26.63;13.57;;;;;;;-0.14;63.72;100759.41;5040228;28;20049;-83
2022/03/05 01:53:31;;;;;;;28.73;15.02;;;;;;;-0.16;63.89;100753.34;5041153;28;20064;-83
2022/03/05 01:55:59;;;;;;;27.10;14.57;;;;;;;-0.17;63.88;100754.41;5038263;28;20045;-83
2022/03/05 01:58:29;;;;;;;29.48;14.38;;;;;;;-0.20;63.99;100749.41;5036918;28;20053;-83
2022/03/05 02:00:56;;;;;;;25.20;13.30;;;;;;;-0.20;63.90;100754.88;5031883;28;20053;-82
2022/03/05 02:03:24;;;;;;;26.88;14.30;;;;;;;-0.19;63.67;100751.06;5033635;28;20049;-82
2022/03/05 02:05:51;;;;;;;26.63;13.23;;;;;;;-0.20;63.80;100746.66;5028096;28;20056;-83
2022/03/05 02:08:20;;;;;;;26.40;14.10;;;;;;;-0.21;63.90;100742.25;5039233;28;20053;-83
2022/03/05 02:10:48;;;;;;;27.17;13.50;;;;;;;-0.29;63.97;100746.19;5034209;28;20433;-83
2022/03/05 02:13:15;;;;;;;26.42;14.02;;;;;;;-0.29;64.06;100735.22;5029905;28;20056;-83
2022/03/05 02:15:44;;;;;;;27.20;14.02;;;;;;;-0.28;63.95;100736.88;5030223;28;20506;-81
2022/03/05 02:18:13;;;;;;;26.38;14.38;;;;;;;-0.30;64.36;100735.47;5040826;28;20052;-82
2022/03/05 02:20:41;;;;;;;28.02;13.32;;;;;;;-0.33;64.05;100733.22;5040115;28;20050;-82
2022/03/05 02:23:09;;;;;;;26.77;13.50;;;;;;;-0.33;63.83;100741.44;5036094;28;20050;-82
2022/03/05 02:25:36;;;;;;;28.95;14.95;;;;;;;-0.34;63.70;100739.75;5026281;28;20064;-82
2022/03/05 02:28:05;;;;;;;25.50;13.63;;;;;;;-0.38;63.67;100735.81;5040063;28;20057;-83
2022/03/05 02:30:32;;;;;;;30.15;14.50;;;;;;;-0.37;63.73;100742.97;5041137;28;20104;-83
2022/03/05 02:32:59;;;;;;;29.33;14.63;;;;;;;-0.39;63.93;100734.97;5038804;28;20045;-82
2022/03/05 02:35:27;;;;;;;27.58;13.88;;;;;;;-0.40;64.36;100744.25;5025223;28;20046;-82
2022/03/05 02:37:56;;;;;;;27.52;14.05;;;;;;;-0.44;64.05;100730.22;5039658;28;20054;-83
2022/03/05 02:40:23;;;;;;;24.23;12.40;;;;;;;-0.44;64.44;100743.91;5026352;28;20041;-83
2022/03/05 02:42:50;;;;;;;24.85;13.18;;;;;;;-0.45;64.38;100744.13;5040849;28;20053;-82
2022/03/05 02:45:17;;;;;;;28.20;14.00;;;;;;;-0.47;64.18;100738.88;5040272;28;20441;-82
2022/03/05 02:47:45;;;;;;;26.52;12.88;;;;;;;-0.51;64.40;100732.22;5039946;28;20064;-83
2022/03/05 02:50:12;;;;;;;26.10;14.18;;;;;;;-0.51;64.47;100736.84;5039336;28;20061;-83
2022/03/05 02:52:40;;;;;;;30.95;13.35;;;;;;;-0.50;64.28;100738.53;5027967;28;20506;-83
2022/03/05 02:55:09;;;;;;;28.67;13.85;;;;;;;-0.54;64.39;100738.16;5035368;28;20058;-83
2022/03/05 02:57:37;;;;;;;29.38;14.57;;;;;;;-0.58;64.19;100742.44;5039341;28;20049;-82
2022/03/05 03:00:05;;;;;;;25.35;13.70;;;;;;;-0.59;64.29;100740.75;5039599;28;20482;-82
2022/03/05 03:02:32;;;;;;;27.42;13.23;;;;;;;-0.62;64.50;100731.13;5039528;28;20049;-82
2022/03/05 03:05:00;;;;;;;28.65;13.40;;;;;;;-0.60;64.58;100732.81;5027462;28;20060;-83
2022/03/05 03:07:29;;;;;;;27.17;14.07;;;;;;;-0.61;64.62;100742.88;5032166;28;20049;-83
2022/03/05 03:09:58;;;;;;;28.65;15.23;;;;;;;-0.62;64.12;100725.66;5024241;28;20050;-82
2022/03/05 03:12:27;;;;;;;30.52;15.30;;;;;;;-0.66;64.19;100737.28;5039828;28;20057;-82
2022/03/05 03:14:54;;;;;;;27.02;13.30;;;;;;;-0.69;64.41;100740.50;5036584;28;20053;-83
2022/03/05 03:17:22;;;;;;;25.33;12.57;;;;;;;-0.69;64.54;100743.25;5020226;28;20057;-82
2022/03/05 03:19:49;;;;;;;29.92;15.38;;;;;;;-0.75;64.66;100739.53;5020336;28;20060;-82
2022/03/05 03:22:17;;;;;;;25.30;12.98;;;;;;;-0.74;64.56;100737.63;5022189;28;20375;-82
2022/03/05 03:24:45;;;;;;;30.50;14.38;;;;;;;-0.74;64.20;100737.63;5034169;28;20402;-82
2022/03/05 03:27:12;;;;;;;33.08;14.88;;;;;;;-0.75;64.38;100741.44;5038531;28;20053;-82
2022/03/05 03:29:41;;;;;;;28.27;12.85;;;;;;;-0.75;64.49;100739.53;5039131;28;20049;-83
2022/03/05 03:32:08;;;;;;;33.15;15.60;;;;;;;-0.79;64.75;100732.03;5018994;28;20053;-82
2022/03/05 03:34:36;;;;;;;36.13;15.77;;;;;;;-0.80;64.57;100738.56;5034881;28;20080;-82
2022/03/05 03:37:04;;;;;;;29.05;14.50;;;;;;;-0.83;64.87;100735.22;5038584;28;20049;-82
2022/03/05 03:39:31;;;;;;;31.08;14.02;;;;;;;-0.83;64.62;100734.38;5038936;28;20049;-83
2022/03/05 03:41:58;;;;;;;30.63;14.52;;;;;;;-0.83;64.68;100745.31;5039094;28;20053;-83
2022/03/05 03:44:26;;;;;;;27.70;12.95;;;;;;;-0.87;64.58;100741.38;5039973;28;20045;-83
2022/03/05 03:46:56;;;;;;;30.25;14.40;;;;;;;-0.87;64.54;100738.66;5038435;28;20056;-83
2022/03/05 03:49:24;;;;;;;27.17;12.85;;;;;;;-0.89;64.81;100730.66;5037970;28;20045;-83
2022/03/05 03:51:52;;;;;;;28.15;13.15;;;;;;;-0.90;65.04;100731.75;5039771;28;20053;-83
2022/03/05 03:54:20;;;;;;;27.77;13.63;;;;;;;-0.90;65.02;100733.66;5038443;28;20064;-83
2022/03/05 03:56:47;;;;;;;31.77;14.98;;;;;;;-0.89;64.56;100738.88;5031254;28;20065;-82
2022/03/05 03:59:14;;;;;;;31.05;15.00;;;;;;;-0.91;64.51;100738.28;5027238;28;20057;-82
2022/03/05 04:01:41;;;;;;;29.33;13.98;;;;;;;-0.93;64.86;100740.41;5038247;28;20053;-82
2022/03/05 04:04:10;;;;;;;32.65;14.75;;;;;;;-0.96;65.26;100735.41;5038004;28;20425;-83
2022/03/05 04:09:19;;;;;;;32.53;14.35;;;;;;;-0.94;64.71;100744.22;5028345;28;20417;-83
2022/03/05 04:11:46;;;;;;;30.90;13.65;;;;;;;-0.95;65.24;100741.72;5037639;28;20053;-82
2022/03/05 04:14:13;;;;;;;27.73;14.18;;;;;;;-0.97;65.32;100736.47;5039469;28;20064;-82
2022/03/05 04:16:41;;;;;;;35.47;15.73;;;;;;;-0.97;64.92;100735.63;5038952;28;20030;-81
2022/03/05 04:19:10;;;;;;;31.10;14.95;;;;;;;-1.02;65.17;100739.91;5019830;28;20065;-83
2022/03/05 04:21:37;;;;;;;29.10;13.68;;;;;;;-0.97;65.13;100746.56;5036510;28;20060;-82
2022/03/05 04:24:06;;;;;;;31.27;13.88;;;;;;;-0.98;64.97;100753.94;5036830;28;20050;-83
2022/03/05 04:26:33;;;;;;;31.30;14.68;;;;;;;-1.05;64.88;100744.97;5037762;28;20045;-82
2022/03/05 04:29:00;;;;;;;28.83;13.98;;;;;;;-1.04;65.51;100749.41;5037776;28;20064;-82
2022/03/05 04:31:28;;;;;;;29.10;13.07;;;;;;;-1.03;64.99;100751.91;5038437;28;20045;-83
2022/03/05 04:33:55;;;;;;;29.23;13.88;;;;;;;-1.06;64.85;100763.28;5030926;28;20041;-82
2022/03/05 04:36:24;;;;;;;30.65;13.50;;;;;;;-1.06;64.97;100755.09;5039053;28;20128;-83
2022/03/05 04:38:51;;;;;;;30.05;13.52;;;;;;;-1.07;65.11;100761.63;5032004;28;20054;-83
2022/03/05 04:41:18;;;;;;;31.55;14.82;;;;;;;-1.01;64.76;100762.59;5033029;28;20050;-83
2022/03/05 04:43:47;;;;;;;33.30;14.02;;;;;;;-0.97;64.70;100763.81;5021369;28;20053;-83
2022/03/05 04:46:15;;;;;;;29.85;13.20;;;;;;;-0.91;64.18;100762.88;5038108;28;20065;-82
2022/03/05 04:48:42;;;;;;;30.05;14.55;;;;;;;-0.84;64.34;100766.38;5037647;28;20514;-82
2022/03/05 04:51:09;;;;;;;31.75;13.45;;;;;;;-0.79;64.21;100762.13;5037652;28;20049;-83
2022/03/05 04:53:38;;;;;;;27.55;13.80;;;;;;;-0.77;64.06;100762.72;5037549;28;20064;-83
2022/03/05 04:56:06;;;;;;;29.65;14.43;;;;;;;-0.77;63.97;100759.97;5037147;28;20049;-83
2022/03/05 04:58:33;;;;;;;29.67;14.25;;;;;;;-0.77;63.70;100759.97;5022392;28;20057;-82
2022/03/05 05:01:01;;;;;;;28.60;13.07;;;;;;;-0.78;64.19;100758.31;5025127;28;20053;-83
2022/03/05 05:03:29;;;;;;;27.95;14.10;;;;;;;-0.75;64.00;100763.31;5036805;28;20498;-82
2022/03/05 05:05:58;;;;;;;34.22;16.13;;;;;;;-0.73;63.80;100763.94;5024095;28;20064;-83
2022/03/05 05:08:25;;;;;;;32.60;14.80;;;;;;;-0.73;63.80;100766.66;5018766;28;20050;-82
2022/03/05 05:10:54;;;;;;;31.17;14.68;;;;;;;-0.73;63.89;100761.19;5035819;28;20468;-82
2022/03/05 05:13:23;;;;;;;28.52;13.90;;;;;;;-0.79;63.84;100765.69;5037739;28;20064;-83
2022/03/05 05:15:50;;;;;;;26.52;13.13;;;;;;;-0.81;63.86;100767.81;5024623;28;20109;-82
2022/03/05 05:18:17;;;;;;;30.23;14.75;;;;;;;-0.83;63.95;100768.03;5017250;28;20060;-83
2022/03/05 05:20:44;;;;;;;27.05;15.48;;;;;;;-0.97;64.17;100769.28;5016745;28;20403;-83
2022/03/05 05:23:12;;;;;;;28.52;14.48;;;;;;;-0.92;63.78;100774.91;5030732;28;20061;-83
2022/03/05 05:25:39;;;;;;;29.90;15.13;;;;;;;-0.90;63.57;100772.78;5037239;28;20060;-83
2022/03/05 05:28:08;;;;;;;29.45;14.90;;;;;;;-0.93;63.84;100781.41;5025949;28;20053;-82
2022/03/05 05:30:36;;;;;;;32.10;14.32;;;;;;;-0.93;63.94;100773.22;5035212;28;20053;-82
2022/03/05 05:33:03;;;;;;;27.25;14.25;;;;;;;-0.97;63.99;100774.75;5027579;28;20041;-82
2022/03/05 05:35:31;;;;;;;34.00;14.30;;;;;;;-1.00;64.61;100777.13;5021321;28;20060;-83
2022/03/05 05:37:58;;;;;;;28.80;14.20;;;;;;;-1.03;64.35;100781.13;5035940;28;20053;-82
2022/03/05 05:40:26;;;;;;;32.22;14.20;;;;;;;-1.04;64.68;100784.94;5036371;28;20054;-83
2022/03/05 05:42:53;;;;;;;27.63;13.80;;;;;;;-1.09;64.79;100777.44;5037021;28;20045;-83
2022/03/05 05:45:22;;;;;;;36.97;15.00;;;;;;;-1.10;64.60;100783.13;5030010;28;20422;-83
2022/03/05 05:47:49;;;;;;;31.53;15.30;;;;;;;-1.17;65.07;100779.66;5019628;28;20065;-83
2022/03/05 05:50:17;;;;;;;36.97;16.70;;;;;;;-1.16;64.99;100778.56;5037170;28;20464;-82
2022/03/05 05:52:44;;;;;;;32.33;15.45;;;;;;;-1.20;64.79;100774.63;5028819;28;20060;-82
2022/03/05 05:55:11;;;;;;;34.22;15.68;;;;;;;-1.26;65.40;100779.97;5035413;28;20056;-83
2022/03/05 05:57:38;;;;;;;34.35;16.63;;;;;;;-1.24;65.41;100783.28;5028525;28;20046;-81
2022/03/05 06:00:07;;;;;;;30.85;15.05;;;;;;;-1.32;65.89;100780.03;5017708;28;20410;-82
2022/03/05 06:02:36;;;;;;;29.85;14.63;;;;;;;-1.32;65.72;100772.66;5029687;28;20490;-82
2022/03/05 06:05:04;;;;;;;33.45;16.10;;;;;;;-1.30;65.33;100772.41;5036230;28;20498;-82
2022/03/05 06:07:31;;;;;;;28.35;14.40;;;;;;;-1.27;64.95;100771.97;5036898;28;20049;-82
2022/03/05 06:09:59;;;;;;;30.67;15.15;;;;;;;-1.26;65.14;100770.91;5035802;28;20055;-81
2022/03/05 06:12:26;;;;;;;32.72;15.35;;;;;;;-1.24;65.21;100779.69;5036289;28;20056;-81
2022/03/05 06:14:54;;;;;;;37.90;16.60;;;;;;;-1.26;65.51;100779.97;5036496;28;20437;-81
2022/03/05 06:17:22;;;;;;;30.70;15.15;;;;;;;-1.28;65.52;100782.09;5035765;28;20398;-82
2022/03/05 06:19:50;;;;;;;34.13;15.57;;;;;;;-1.29;65.45;100785.88;5036924;28;20049;-82
2022/03/05 06:22:18;;;;;;;36.50;16.15;;;;;;;-1.24;65.45;100774.25;5036552;28;20049;-82
2022/03/05 06:24:46;;;;;;;33.90;15.93;;;;;;;-1.21;65.22;100772.97;5037640;28;20053;-82
2022/03/05 06:27:13;;;;;;;35.28;16.60;;;;;;;-1.25;65.10;100781.59;5037628;28;20046;-83
2022/03/05 06:29:41;;;;;;;28.70;14.57;;;;;;;-1.19;65.31;100773.56;5031299;28;20417;-82
2022/03/05 06:32:09;;;;;;;34.60;15.60;;;;;;;-1.15;65.34;100780.25;5039784;28;20050;-83
2022/03/05 06:34:36;;;;;;;31.75;16.20;;;;;;;-1.12;65.31;100791.53;5032816;28;20050;-82
2022/03/05 06:37:05;;;;;;;32.53;15.93;;;;;;;-1.05;65.21;100791.47;5030511;28;20053;-82
2022/03/05 06:39:32;;;;;;;33.45;15.45;;;;;;;-1.00;65.24;100788.88;5026567;28;20053;-82
2022/03/05 06:42:00;;;;;;;31.83;16.17;;;;;;;-0.75;65.13;100777.00;5037967;28;20058;-83
2022/03/05 06:44:27;;;;;;;28.38;15.80;;;;;;;-0.06;63.55;100775.50;5039774;28;20413;-83
2022/03/05 06:46:55;;;;;;;29.60;14.23;;;;;;;0.69;62.12;100784.03;5039632;28;20072;-81
2022/03/05 06:49:22;;;;;;;27.50;13.95;;;;;;;1.41;60.45;100780.84;5040198;28;20053;-82
2022/03/05 06:51:49;;;;;;;32.97;16.27;;;;;;;2.22;57.79;100778.63;5039357;28;20061;-82
2022/03/05 06:54:19;;;;;;;27.63;14.23;;;;;;;2.93;56.88;100769.72;5038526;28;20505;-82
2022/03/05 06:56:46;;;;;;;;;;;;;;;3.55;53.63;100776.75;5038483;28;20065;-83
2022/03/05 06:59:14;;;;;;;27.77;14.90;;;;;;;4.32;54.13;100771.03;5040350;28;19944;-83
2022/03/05 07:01:41;;;;;;;25.60;14.10;;;;;;;4.88;51.56;100774.13;5039787;28;20064;-83
2022/03/05 07:04:08;;;;;;;25.23;15.05;;;;;;;5.51;49.39;100774.03;5036143;28;20414;-83
2022/03/05 07:06:37;;;;;;;30.98;14.73;;;;;;;6.13;48.22;100769.41;5022630;28;20060;-82
2022/03/05 07:09:04;;;;;;;26.77;16.33;;;;;;;7.07;46.13;100775.28;5031278;28;20494;-83
2022/03/05 07:11:33;;;;;;;22.58;14.20;;;;;;;7.83;44.47;100770.44;5032455;28;20494;-83
2022/03/05 07:14:01;;;;;;;22.45;13.52;;;;;;;8.49;43.17;100763.47;5039208;28;20061;-83
2022/03/05 07:16:28;;;;;;;26.02;14.18;;;;;;;9.13;41.65;100760.50;5037802;28;20068;-84
2022/03/05 07:18:56;;;;;;;23.30;13.80;;;;;;;9.82;40.30;100762.88;5038839;28;20057;-84
2022/03/05 07:21:23;;;;;;;29.55;17.25;;;;;;;10.06;38.22;100774.75;5038330;28;20413;-83
2022/03/05 07:23:51;;;;;;;22.33;15.18;;;;;;;10.90;37.45;100773.81;5037092;28;20053;-83
2022/03/05 07:26:18;;;;;;;21.98;15.52;;;;;;;11.61;35.79;100776.19;5036666;28;20401;-83
2022/03/05 07:28:47;;;;;;;24.27;16.75;;;;;;;12.37;34.07;100778.31;5038158;28;20429;-84
2022/03/05 07:31:17;;;;;;;24.83;16.33;;;;;;;12.74;33.24;100781.78;5037521;28;20045;-84
2022/03/05 07:33:45;;;;;;;23.92;16.48;;;;;;;13.33;31.97;100779.56;5038233;28;20049;-81
2022/03/05 07:36:12;;;;;;;25.25;16.55;;;;;;;13.75;31.21;100779.13;5038269;28;20060;-82
2022/03/05 07:38:43;;;;;;;24.98;17.40;;;;;;;14.27;30.05;100781.91;5036884;28;20049;-83
2022/03/05 07:41:10;;;;;;;22.38;16.67;;;;;;;14.56;29.95;100781.22;5036649;28;20057;-83
2022/03/05 07:43:37;;;;;;;26.25;17.02;;;;;;;15.35;28.71;100772.44;5023186;28;20053;-83
2022/03/05 07:46:06;;;;;;;25.73;17.35;;;;;;;15.92;27.91;100782.34;5020469;28;20050;-82
2022/03/05 07:48:36;;;;;;;22.67;16.53;;;;;;;16.32;27.04;100779.00;5019663;28;20060;-82
2022/03/05 07:51:04;;;;;;;23.83;15.98;;;;;;;17.01;26.22;100777.44;5036995;28;20053;-83
2022/03/05 07:53:32;;;;;;;22.70;15.85;;;;;;;17.47;25.76;100778.13;5020307;28;20054;-83
2022/03/05 07:56:00;;;;;;;22.35;16.00;;;;;;;17.69;25.06;100770.34;5034786;28;20417;-82
2022/03/05 07:58:28;;;;;;;21.58;15.25;;;;;;;18.31;24.61;100777.44;5038810;28;20057;-83
2022/03/05 08:00:55;;;;;;;24.40;16.35;;;;;;;18.85;23.91;100790.19;5036851;28;20083;-83
2022/03/05 08:03:24;;;;;;;24.73;16.92;;;;;;;19.42;24.45;100790.78;5038113;28;20046;-82
2022/03/05 08:05:52;;;;;;;23.70;16.92;;;;;;;19.94;22.82;100786.75;5035998;28;20060;-83
2022/03/05 08:08:19;;;;;;;22.23;16.20;;;;;;;20.55;22.00;100784.34;5039497;28;20058;-82
2022/03/05 08:10:49;;;;;;;22.88;17.63;;;;;;;21.07;21.27;100791.41;5038000;28;20049;-82
2022/03/05 08:13:16;;;;;;;21.75;16.23;;;;;;;21.43;21.05;100783.50;5020406;28;20203;-83
2022/03/05 08:15:44;;;;;;;21.25;17.00;;;;;;;21.66;20.76;100789.13;5027033;28;20061;-81
2022/03/05 08:18:11;;;;;;;21.95;16.33;;;;;;;21.92;20.43;100790.28;5038846;28;20068;-82
2022/03/05 08:20:40;;;;;;;22.40;17.13;;;;;;;22.65;19.71;100788.75;5027258;28;20053;-83
2022/03/05 08:23:08;;;;;;;21.10;17.50;;;;;;;22.93;19.45;100778.91;5024433;28;20052;-82
2022/03/05 08:25:35;;;;;;;22.48;17.35;;;;;;;23.18;18.87;100786.84;5035868;28;20052;-82
2022/03/05 08:28:02;;;;;;;23.75;18.35;;;;;;;23.33;19.22;100777.25;5036132;28;20068;-82
2022/03/05 08:30:29;;;;;;;20.27;16.55;;;;;;;23.70;19.15;100779.91;5036166;28;20049;-83
2022/03/05 08:32:57;;;;;;;21.55;16.35;;;;;;;24.04;18.50;100784.59;5022403;28;20049;-82
2022/03/05 08:35:24;;;;;;;21.25;17.77;;;;;;;24.05;18.54;100786.25;5036691;28;20516;-81
2022/03/05 08:37:53;;;;;;;19.63;17.05;;;;;;;24.78;17.70;100773.88;5030833;28;20061;-82
2022/03/05 08:40:21;;;;;;;;;;;;;;;24.87;17.84;100782.84;5037115;28;20489;-82
2022/03/05 08:42:49;;;;;;;20.30;16.25;;;;;;;25.79;17.01;100778.31;5038207;28;19921;-81
2022/03/05 08:45:17;;;;;;;19.83;16.58;;;;;;;26.33;16.77;100776.13;5040610;28;20049;-82
2022/03/05 08:47:45;;;;;;;21.50;16.15;;;;;;;27.02;16.27;100769.97;5038273;28;20458;-82
2022/03/05 08:50:13;;;;;;;18.65;16.30;;;;;;;27.12;15.66;100769.88;5022294;28;20049;-81
2022/03/05 08:52:41;;;;;;;19.08;15.98;;;;;;;27.50;15.60;100774.88;5032367;28;20045;-80
2022/03/05 08:55:12;;;;;;;18.13;15.23;;;;;;;27.85;15.43;100770.84;5033923;28;20061;-82
2022/03/05 08:57:41;;;;;;;15.90;13.88;;;;;;;28.04;14.26;100765.75;5034952;28;20516;-85
2022/03/05 09:00:12;;;;;;;16.23;14.18;;;;;;;27.64;14.71;100771.06;5020544;28;20391;-80
2022/03/05 09:02:40;;;;;;;14.50;12.75;;;;;;;28.07;14.06;100774.25;5028534;28;20049;-82
2022/03/05 09:05:08;;;;;;;15.35;13.45;;;;;;;27.84;14.22;100774.91;5035897;28;20057;-83
2022/03/05 09:07:35;;;;;;;15.80;13.35;;;;;;;27.32;13.66;100772.22;5034658;28;20060;-82
2022/03/05 09:10:03;;;;;;;14.45;12.13;;;;;;;27.29;14.44;100775.91;5038550;28;20073;-81
2022/03/05 09:12:32;;;;;;;13.48;12.02;;;;;;;26.70;14.60;100768.97;5034955;28;20049;-82
2022/03/05 09:14:59;;;;;;;16.08;13.77;;;;;;;26.75;14.42;100767.72;5039776;28;20469;-81
2022/03/05 09:17:27;;;;;;;15.90;14.20;;;;;;;27.21;14.30;100760.00;5040151;28;20406;-82
2022/03/05 09:19:54;;;;;;;15.25;13.13;;;;;;;26.72;14.51;100763.66;5039054;28;20054;-82
2022/03/05 09:22:22;;;;;;;16.40;13.27;;;;;;;26.12;14.62;100768.47;5038771;28;20064;-82
2022/03/05 09:24:49;;;;;;;14.40;12.50;;;;;;;25.78;14.96;100765.28;5036566;28;20057;-83
2022/03/05 09:27:17;;;;;;;15.20;12.57;;;;;;;25.94;14.76;100764.84;5039451;28;20045;-83
2022/03/05 09:29:46;;;;;;;15.55;12.32;;;;;;;25.77;14.86;100765.72;5039089;28;20410;-85
2022/03/05 09:32:13;;;;;;;;;;;;;;;25.92;14.85;100762.41;5032836;28;20057;-83
2022/03/05 09:34:40;;;;;;;15.98;13.52;;;;;;;26.18;14.57;100765.97;5039501;28;19936;-83
2022/03/05 09:37:08;;;;;;;15.77;13.18;;;;;;;25.55;14.88;100762.06;5039026;28;20397;-83
2022/03/05 09:39:36;;;;;;;15.90;13.07;;;;;;;25.70;14.92;100755.94;5037831;28;20052;-83
2022/03/05 09:42:05;;;;;;;12.90;11.43;;;;;;;27.05;13.90;100752.78;5039691;28;20057;-83
2022/03/05 09:44:32;;;;;;;15.88;12.88;;;;;;;26.97;14.12;100756.13;5039149;28;20060;-83
2022/03/05 09:47:04;;;;;;;14.60;12.50;;;;;;;26.42;14.25;100761.38;5036550;28;20049;-82
2022/03/05 09:49:31;;;;;;;15.43;12.40;;;;;;;26.17;14.32;100755.78;5039031;28;20057;-83
2022/03/05 09:52:00;;;;;;;15.48;13.68;;;;;;;26.39;14.47;100761.38;5031588;28;20467;-83
2022/03/05 09:54:28;;;;;;;14.65;13.02;;;;;;;27.21;13.67;100754.28;5038071;28;20510;-84
2022/03/05 09:56:55;;;;;;;13.40;11.98;;;;;;;27.88;12.84;100758.53;5035641;28;20057;-83
2022/03/05 09:59:22;;;;;;;14.50;12.73;;;;;;;27.74;13.16;100758.69;5037315;28;20045;-82
2022/03/05 10:01:51;;;;;;;12.80;10.90;;;;;;;26.85;13.56;100754.59;5034054;28;20061;-82
2022/03/05 10:04:22;;;;;;;12.90;11.25;;;;;;;26.31;13.94;100767.16;5038759;28;20045;-82
2022/03/05 10:07:11;;;;;;;14.35;11.88;;;;;;;26.20;14.24;100759.84;5040215;28;20049;-81
2022/03/05 10:09:39;;;;;;;12.93;11.55;;;;;;;27.95;13.42;100751.94;5039357;28;20477;-84
2022/03/05 10:12:28;;;;;;;13.87;11.70;;;;;;;27.36;12.76;100755.00;5044058;28;20061;-84
2022/03/05 10:15:13;;;;;;;12.95;11.40;;;;;;;27.42;12.85;100751.25;5041511;28;20479;-83
2022/03/05 10:17:52;;;;;;;13.07;11.77;;;;;;;28.26;12.58;100752.75;5041848;28;20502;-82
2022/03/05 10:20:22;;;;;;;15.77;12.65;;;;;;;27.30;13.30;100741.16;5039778;28;20072;-83
2022/03/05 10:23:01;;;;;;;16.48;11.93;;;;;;;28.02;12.84;100751.84;5040956;28;20395;-83
2022/03/05 10:25:34;;;;;;;12.75;11.38;;;;;;;28.69;12.24;100743.56;5034999;28;20124;-83
2022/03/05 10:28:04;;;;;;;13.73;11.70;;;;;;;28.35;12.35;100740.78;5040473;28;20061;-83
2022/03/05 10:30:34;;;;;;;12.75;11.45;;;;;;;27.71;12.70;100742.38;5039965;28;20049;-83
2022/03/05 10:33:02;;;;;;;12.23;10.93;;;;;;;28.45;12.29;100744.72;5034799;28;20065;-84
2022/03/05 10:35:31;;;;;;;12.85;11.52;;;;;;;29.05;12.20;100745.84;5034026;28;20049;-80
2022/03/05 10:37:59;;;;;;;12.23;10.57;;;;;;;29.26;11.98;100741.81;5038690;28;20045;-83
2022/03/05 10:40:30;;;;;;;12.60;11.25;;;;;;;28.47;11.83;100739.38;5038235;28;20413;-83
2022/03/05 10:43:04;;;;;;;12.45;11.15;;;;;;;29.77;11.07;100738.84;5037567;28;20050;-83
2022/03/05 10:45:49;;;;;;;12.40;11.10;;;;;;;28.38;11.79;100744.81;5039266;28;20072;-83
2022/03/05 10:48:28;;;;;;;12.70;11.40;;;;;;;28.48;11.89;100752.47;5037453;28;20053;-82
2022/03/05 10:51:01;;;;;;;13.40;11.07;;;;;;;28.30;12.38;100744.09;5039930;28;20052;-83
2022/03/05 10:53:45;;;;;;;13.18;11.70;;;;;;;28.05;11.93;100739.50;5039629;28;20058;-83
2022/03/05 10:56:27;;;;;;;12.68;11.38;;;;;;;28.91;11.46;100740.34;5041355;28;20060;-83
2022/03/05 10:58:59;;;;;;;14.10;11.07;;;;;;;29.47;10.63;100743.50;5038794;28;20053;-83
2022/03/05 11:01:27;;;;;;;13.15;11.38;;;;;;;28.97;11.01;100734.94;5038330;28;20061;-83
2022/03/05 11:03:56;;;;;;;12.63;10.98;;;;;;;30.25;10.58;100725.91;5039020;28;20061;-85
2022/03/05 11:06:25;;;;;;;11.30;9.55;;;;;;;30.86;10.87;100732.34;5032308;28;20041;-82
2022/03/05 11:08:53;;;;;;;11.30;10.10;;;;;;;31.80;10.40;100734.41;5032979;28;20056;-83
2022/03/05 11:11:23;;;;;;;13.43;12.02;;;;;;;30.69;9.88;100740.16;5040200;28;20064;-82
2022/03/05 11:13:50;;;;;;;12.00;10.75;;;;;;;29.50;10.15;100734.03;5040515;28;20042;-82
2022/03/05 11:16:17;;;;;;;11.77;10.55;;;;;;;28.52;11.51;100733.19;5040578;28;20056;-82
2022/03/05 11:18:45;;;;;;;12.60;11.18;;;;;;;29.58;10.87;100731.81;5041108;28;20053;-82
2022/03/05 11:21:13;;;;;;;13.27;10.93;;;;;;;29.53;10.98;100726.59;5041965;28;20061;-82
2022/03/05 11:23:43;;;;;;;12.52;10.77;;;;;;;27.99;11.08;100717.50;5040044;28;20054;-82
2022/03/05 11:26:11;;;;;;;11.98;10.60;;;;;;;27.35;12.31;100724.78;5039508;28;20045;-82
2022/03/05 11:28:40;;;;;;;11.82;10.07;;;;;;;28.07;11.45;100727.63;5039564;28;20056;-82
2022/03/05 11:31:15;;;;;;;;;;;;;;;28.04;11.61;100725.66;5034709;28;20501;-83
2022/03/05 11:33:43;;;;;;;12.75;10.32;;;;;;;28.45;10.37;100722.59;5036170;28;19921;-82
2022/03/05 11:36:28;;;;;;;12.93;10.30;;;;;;;29.81;10.53;100716.59;5035223;28;20049;-80
2022/03/05 11:39:29;;;;;;;10.35;9.25;;;;;;;30.42;10.17;100728.88;5034668;28;20053;-82
2022/03/05 11:42:01;;;;;;;13.13;11.30;;;;;;;31.20;9.94;100719.59;5029095;28;20049;-81